sensor_id;sensor_type;location;lat;lon;timestamp;P1;durP1;ratioP1;P2;durP2;ratioP2
32864;SDS011;19219;44.500;11.188;2022-07-18T00:01:00;10.98;;;9.18;;
32864;SDS011;19219;44.500;11.188;2022-07-18T00:03:28;19.42;;;10.25;;
32864;SDS011;19219;44.500;11.188;2022-07-18T00:05:53;10.88;;;7.82;;
32864;SDS011;19219;44.500;11.188;2022-07-18T00:08:19;17.50;;;12.93;;
32864;SDS011;19219;44.500;11.188;2022-07-18T00:10:45;14.45;;;7.43;;
32864;SDS011;19219;44.500;11.188;2022-07-18T00:13:10;11.25;;;6.65;;
32864;SDS011;19219;44.500;11.188;2022-07-18T00:15:37;15.32;;;7.55;;
32864;SDS011;19219;44.500;11.188;2022-07-18T00:18:03;9.55;;;7.45;;
32864;SDS011;19219;44.500;11.188;2022-07-18T00:20:29;11.93;;;7.15;;
32864;SDS011;19219;44.500;11.188;2022-07-18T00:22:55;9.45;;;5.88;;
32864;SDS011;19219;44.500;11.188;2022-07-18T00:25:21;9.23;;;6.72;;
32864;SDS011;19219;44.500;11.188;2022-07-18T00:27:47;11.82;;;7.72;;
32864;SDS011;19219;44.500;11.188;2022-07-18T00:30:12;8.55;;;5.63;;
32864;SDS011;19219;44.500;11.188;2022-07-18T00:32:38;8.20;;;6.68;;
32864;SDS011;19219;44.500;11.188;2022-07-18T00:35:04;9.32;;;6.88;;
32864;SDS011;19219;44.500;11.188;2022-07-18T00:37:30;18.33;;;12.65;;
32864;SDS011;19219;44.500;11.188;2022-07-18T00:39:56;14.65;;;6.45;;
32864;SDS011;19219;44.500;11.188;2022-07-18T00:42:22;11.60;;;6.10;;
32864;SDS011;19219;44.500;11.188;2022-07-18T00:44:51;7.63;;;6.80;;
32864;SDS011;19219;44.500;11.188;2022-07-18T00:47:18;6.90;;;6.20;;
32864;SDS011;19219;44.500;11.188;2022-07-18T00:49:44;9.45;;;6.43;;
32864;SDS011;19219;44.500;11.188;2022-07-18T00:52:10;9.15;;;6.13;;
32864;SDS011;19219;44.500;11.188;2022-07-18T00:54:35;8.25;;;6.53;;
32864;SDS011;19219;44.500;11.188;2022-07-18T00:57:01;11.00;;;5.95;;
32864;SDS011;19219;44.500;11.188;2022-07-18T00:59:27;8.48;;;6.35;;
32864;SDS011;19219;44.500;11.188;2022-07-18T01:02:13;7.80;;;6.05;;
32864;SDS011;19219;44.500;11.188;2022-07-18T01:04:39;8.30;;;5.85;;
32864;SDS011;19219;44.500;11.188;2022-07-18T01:07:05;7.63;;;6.25;;
32864;SDS011;19219;44.500;11.188;2022-07-18T01:09:32;7.80;;;5.82;;
32864;SDS011;19219;44.500;11.188;2022-07-18T01:11:58;8.88;;;5.90;;
32864;SDS011;19219;44.500;11.188;2022-07-18T01:14:23;9.55;;;6.07;;
32864;SDS011;19219;44.500;11.188;2022-07-18T01:16:51;7.68;;;5.85;;
32864;SDS011;19219;44.500;11.188;2022-07-18T01:19:17;7.18;;;5.78;;
32864;SDS011;19219;44.500;11.188;2022-07-18T01:21:42;7.47;;;5.82;;
32864;SDS011;19219;44.500;11.188;2022-07-18T01:24:08;8.80;;;6.10;;
32864;SDS011;19219;44.500;11.188;2022-07-18T01:26:34;9.45;;;5.97;;
32864;SDS011;19219;44.500;11.188;2022-07-18T01:29:01;9.82;;;6.18;;
32864;SDS011;19219;44.500;11.188;2022-07-18T01:31:27;12.23;;;7.15;;
32864;SDS011;19219;44.500;11.188;2022-07-18T01:33:58;8.48;;;6.05;;
32864;SDS011;19219;44.500;11.188;2022-07-18T01:36:24;8.40;;;5.65;;
32864;SDS011;19219;44.500;11.188;2022-07-18T01:38:50;11.13;;;6.78;;
32864;SDS011;19219;44.500;11.188;2022-07-18T01:41:16;8.13;;;5.78;;
32864;SDS011;19219;44.500;11.188;2022-07-18T01:43:42;8.57;;;6.07;;
32864;SDS011;19219;44.500;11.188;2022-07-18T01:46:08;21.73;;;14.55;;
32864;SDS011;19219;44.500;11.188;2022-07-18T01:48:38;17.60;;;12.15;;
32864;SDS011;19219;44.500;11.188;2022-07-18T01:51:05;7.25;;;6.40;;
32864;SDS011;19219;44.500;11.188;2022-07-18T01:53:35;8.75;;;6.35;;
32864;SDS011;19219;44.500;11.188;2022-07-18T01:56:04;9.27;;;6.82;;
32864;SDS011;19219;44.500;11.188;2022-07-18T01:58:30;8.15;;;6.28;;
32864;SDS011;19219;44.500;11.188;2022-07-18T02:00:56;8.57;;;5.95;;
32864;SDS011;19219;44.500;11.188;2022-07-18T02:03:21;7.10;;;6.40;;
32864;SDS011;19219;44.500;11.188;2022-07-18T02:05:48;7.90;;;6.63;;
32864;SDS011;19219;44.500;11.188;2022-07-18T02:08:13;8.63;;;6.60;;
32864;SDS011;19219;44.500;11.188;2022-07-18T02:10:39;7.00;;;6.25;;
32864;SDS011;19219;44.500;11.188;2022-07-18T02:13:05;8.02;;;6.45;;
32864;SDS011;19219;44.500;11.188;2022-07-18T02:15:30;9.27;;;6.18;;
32864;SDS011;19219;44.500;11.188;2022-07-18T02:17:56;7.10;;;6.40;;
32864;SDS011;19219;44.500;11.188;2022-07-18T02:20:22;11.45;;;6.55;;
32864;SDS011;19219;44.500;11.188;2022-07-18T02:22:48;9.10;;;6.13;;
32864;SDS011;19219;44.500;11.188;2022-07-18T02:25:14;8.43;;;6.60;;
32864;SDS011;19219;44.500;11.188;2022-07-18T02:27:39;10.35;;;6.53;;
32864;SDS011;19219;44.500;11.188;2022-07-18T02:30:06;11.35;;;6.40;;
32864;SDS011;19219;44.500;11.188;2022-07-18T02:32:34;9.25;;;6.38;;
32864;SDS011;19219;44.500;11.188;2022-07-18T02:35:02;9.23;;;6.47;;
32864;SDS011;19219;44.500;11.188;2022-07-18T02:37:29;7.65;;;6.93;;
32864;SDS011;19219;44.500;11.188;2022-07-18T02:39:55;7.22;;;6.43;;
32864;SDS011;19219;44.500;11.188;2022-07-18T02:42:21;12.25;;;6.28;;
32864;SDS011;19219;44.500;11.188;2022-07-18T02:44:46;8.40;;;6.43;;
32864;SDS011;19219;44.500;11.188;2022-07-18T02:47:12;6.97;;;6.28;;
32864;SDS011;19219;44.500;11.188;2022-07-18T02:49:38;8.98;;;6.88;;
32864;SDS011;19219;44.500;11.188;2022-07-18T02:52:05;10.38;;;7.28;;
32864;SDS011;19219;44.500;11.188;2022-07-18T02:54:34;8.30;;;6.93;;
32864;SDS011;19219;44.500;11.188;2022-07-18T02:57:02;8.98;;;6.28;;
32864;SDS011;19219;44.500;11.188;2022-07-18T02:59:28;8.02;;;6.32;;
32864;SDS011;19219;44.500;11.188;2022-07-18T03:01:54;10.57;;;6.40;;
32864;SDS011;19219;44.500;11.188;2022-07-18T03:04:21;10.77;;;6.88;;
32864;SDS011;19219;44.500;11.188;2022-07-18T03:06:48;7.57;;;6.72;;
32864;SDS011;19219;44.500;11.188;2022-07-18T03:09:15;8.27;;;7.05;;
32864;SDS011;19219;44.500;11.188;2022-07-18T03:11:41;10.93;;;7.57;;
32864;SDS011;19219;44.500;11.188;2022-07-18T03:14:08;8.15;;;5.93;;
32864;SDS011;19219;44.500;11.188;2022-07-18T03:16:34;8.05;;;7.10;;
32864;SDS011;19219;44.500;11.188;2022-07-18T03:19:00;7.68;;;6.88;;
32864;SDS011;19219;44.500;11.188;2022-07-18T03:21:26;7.78;;;7.00;;
32864;SDS011;19219;44.500;11.188;2022-07-18T03:23:53;8.30;;;6.63;;
32864;SDS011;19219;44.500;11.188;2022-07-18T03:26:18;9.05;;;6.60;;
32864;SDS011;19219;44.500;11.188;2022-07-18T03:28:45;10.50;;;7.57;;
32864;SDS011;19219;44.500;11.188;2022-07-18T03:31:10;7.78;;;7.00;;
32864;SDS011;19219;44.500;11.188;2022-07-18T03:33:37;7.72;;;6.93;;
32864;SDS011;19219;44.500;11.188;2022-07-18T03:36:03;8.40;;;7.28;;
32864;SDS011;19219;44.500;11.188;2022-07-18T03:38:30;11.60;;;6.68;;
32864;SDS011;19219;44.500;11.188;2022-07-18T03:40:56;11.50;;;6.78;;
32864;SDS011;19219;44.500;11.188;2022-07-18T03:43:22;8.45;;;6.95;;
32864;SDS011;19219;44.500;11.188;2022-07-18T03:45:48;9.60;;;6.95;;
32864;SDS011;19219;44.500;11.188;2022-07-18T03:48:13;7.75;;;7.00;;
32864;SDS011;19219;44.500;11.188;2022-07-18T03:50:39;9.63;;;6.47;;
32864;SDS011;19219;44.500;11.188;2022-07-18T03:53:05;8.50;;;7.70;;
32864;SDS011;19219;44.500;11.188;2022-07-18T03:55:31;10.82;;;8.38;;
32864;SDS011;19219;44.500;11.188;2022-07-18T03:57:57;8.35;;;7.65;;
32864;SDS011;19219;44.500;11.188;2022-07-18T04:00:22;10.57;;;6.80;;
32864;SDS011;19219;44.500;11.188;2022-07-18T04:02:48;8.00;;;7.20;;
32864;SDS011;19219;44.500;11.188;2022-07-18T04:05:14;15.07;;;6.88;;
32864;SDS011;19219;44.500;11.188;2022-07-18T04:07:41;9.48;;;7.88;;
32864;SDS011;19219;44.500;11.188;2022-07-18T04:10:07;10.40;;;7.22;;
32864;SDS011;19219;44.500;11.188;2022-07-18T04:12:43;8.95;;;6.68;;
32864;SDS011;19219;44.500;11.188;2022-07-18T04:15:20;8.18;;;7.38;;
32864;SDS011;19219;44.500;11.188;2022-07-18T04:17:47;7.20;;;6.50;;
32864;SDS011;19219;44.500;11.188;2022-07-18T04:20:17;7.97;;;7.18;;
32864;SDS011;19219;44.500;11.188;2022-07-18T04:25:17;8.02;;;7.22;;
32864;SDS011;19219;44.500;11.188;2022-07-18T04:27:44;13.52;;;7.30;;
32864;SDS011;19219;44.500;11.188;2022-07-18T04:30:10;12.20;;;7.95;;
32864;SDS011;19219;44.500;11.188;2022-07-18T04:32:38;8.15;;;7.22;;
32864;SDS011;19219;44.500;11.188;2022-07-18T04:35:04;7.35;;;6.65;;
32864;SDS011;19219;44.500;11.188;2022-07-18T04:37:31;8.38;;;7.47;;
32864;SDS011;19219;44.500;11.188;2022-07-18T04:39:58;13.60;;;7.57;;
32864;SDS011;19219;44.500;11.188;2022-07-18T04:42:24;9.00;;;7.30;;
32864;SDS011;19219;44.500;11.188;2022-07-18T04:44:50;7.45;;;6.75;;
32864;SDS011;19219;44.500;11.188;2022-07-18T04:47:16;7.97;;;6.70;;
32864;SDS011;19219;44.500;11.188;2022-07-18T04:49:42;9.10;;;7.20;;
32864;SDS011;19219;44.500;11.188;2022-07-18T04:52:08;13.10;;;7.85;;
32864;SDS011;19219;44.500;11.188;2022-07-18T04:54:34;12.25;;;7.45;;
32864;SDS011;19219;44.500;11.188;2022-07-18T04:57:00;12.73;;;8.30;;
32864;SDS011;19219;44.500;11.188;2022-07-18T04:59:26;12.60;;;7.25;;
32864;SDS011;19219;44.500;11.188;2022-07-18T05:01:53;18.10;;;7.32;;
32864;SDS011;19219;44.500;11.188;2022-07-18T05:04:19;10.68;;;8.10;;
32864;SDS011;19219;44.500;11.188;2022-07-18T05:06:45;21.65;;;8.68;;
32864;SDS011;19219;44.500;11.188;2022-07-18T05:09:10;12.93;;;7.82;;
32864;SDS011;19219;44.500;11.188;2022-07-18T05:11:36;11.45;;;7.82;;
32864;SDS011;19219;44.500;11.188;2022-07-18T05:14:01;9.48;;;7.00;;
32864;SDS011;19219;44.500;11.188;2022-07-18T05:16:27;12.70;;;8.73;;
32864;SDS011;19219;44.500;11.188;2022-07-18T05:18:53;8.90;;;8.00;;
32864;SDS011;19219;44.500;11.188;2022-07-18T05:21:18;15.15;;;8.23;;
32864;SDS011;19219;44.500;11.188;2022-07-18T05:23:44;10.38;;;9.20;;
32864;SDS011;19219;44.500;11.188;2022-07-18T05:26:10;11.90;;;7.65;;
32864;SDS011;19219;44.500;11.188;2022-07-18T05:28:37;12.90;;;8.77;;
32864;SDS011;19219;44.500;11.188;2022-07-18T05:31:02;8.23;;;7.43;;
32864;SDS011;19219;44.500;11.188;2022-07-18T05:33:28;9.93;;;7.93;;
32864;SDS011;19219;44.500;11.188;2022-07-18T05:35:54;8.93;;;7.90;;
32864;SDS011;19219;44.500;11.188;2022-07-18T05:38:20;15.13;;;8.32;;
32864;SDS011;19219;44.500;11.188;2022-07-18T05:40:46;12.98;;;7.88;;
32864;SDS011;19219;44.500;11.188;2022-07-18T05:43:11;13.52;;;8.00;;
32864;SDS011;19219;44.500;11.188;2022-07-18T05:45:37;14.70;;;8.23;;
32864;SDS011;19219;44.500;11.188;2022-07-18T05:48:03;11.63;;;7.82;;
32864;SDS011;19219;44.500;11.188;2022-07-18T05:50:29;9.45;;;7.20;;
32864;SDS011;19219;44.500;11.188;2022-07-18T05:52:55;15.80;;;7.78;;
32864;SDS011;19219;44.500;11.188;2022-07-18T05:55:21;12.20;;;6.88;;
32864;SDS011;19219;44.500;11.188;2022-07-18T05:57:47;13.20;;;6.38;;
32864;SDS011;19219;44.500;11.188;2022-07-18T06:00:14;11.07;;;7.03;;
32864;SDS011;19219;44.500;11.188;2022-07-18T06:02:41;11.18;;;6.57;;
32864;SDS011;19219;44.500;11.188;2022-07-18T06:05:07;9.00;;;6.97;;
32864;SDS011;19219;44.500;11.188;2022-07-18T06:07:34;11.77;;;7.88;;
32864;SDS011;19219;44.500;11.188;2022-07-18T06:10:00;11.68;;;8.05;;
32864;SDS011;19219;44.500;11.188;2022-07-18T06:12:29;14.82;;;7.40;;
32864;SDS011;19219;44.500;11.188;2022-07-18T06:14:56;13.25;;;7.82;;
32864;SDS011;19219;44.500;11.188;2022-07-18T06:17:22;10.43;;;7.28;;
32864;SDS011;19219;44.500;11.188;2022-07-18T06:19:48;14.10;;;8.43;;
32864;SDS011;19219;44.500;11.188;2022-07-18T06:22:13;10.13;;;7.32;;
32864;SDS011;19219;44.500;11.188;2022-07-18T06:24:39;9.15;;;6.30;;
32864;SDS011;19219;44.500;11.188;2022-07-18T06:27:05;6.47;;;5.80;;
32864;SDS011;19219;44.500;11.188;2022-07-18T06:29:30;9.55;;;6.53;;
32864;SDS011;19219;44.500;11.188;2022-07-18T06:31:56;8.25;;;6.25;;
32864;SDS011;19219;44.500;11.188;2022-07-18T06:34:22;7.90;;;6.28;;
32864;SDS011;19219;44.500;11.188;2022-07-18T06:36:48;10.38;;;5.97;;
32864;SDS011;19219;44.500;11.188;2022-07-18T06:39:13;14.05;;;9.18;;
32864;SDS011;19219;44.500;11.188;2022-07-18T06:41:41;29.88;;;21.17;;
32864;SDS011;19219;44.500;11.188;2022-07-18T06:44:07;9.02;;;7.57;;
32864;SDS011;19219;44.500;11.188;2022-07-18T06:46:33;9.27;;;6.80;;
32864;SDS011;19219;44.500;11.188;2022-07-18T06:48:59;10.07;;;6.93;;
32864;SDS011;19219;44.500;11.188;2022-07-18T06:51:24;8.15;;;5.35;;
32864;SDS011;19219;44.500;11.188;2022-07-18T06:53:50;9.10;;;6.70;;
32864;SDS011;19219;44.500;11.188;2022-07-18T06:56:16;9.75;;;6.25;;
32864;SDS011;19219;44.500;11.188;2022-07-18T06:58:42;10.60;;;6.05;;
32864;SDS011;19219;44.500;11.188;2022-07-18T07:01:13;8.70;;;6.05;;
32864;SDS011;19219;44.500;11.188;2022-07-18T07:03:41;12.23;;;6.65;;
32864;SDS011;19219;44.500;11.188;2022-07-18T07:06:06;7.78;;;6.28;;
32864;SDS011;19219;44.500;11.188;2022-07-18T07:11:05;10.07;;;5.65;;
32864;SDS011;19219;44.500;11.188;2022-07-18T07:13:31;6.38;;;5.78;;
32864;SDS011;19219;44.500;11.188;2022-07-18T07:15:58;10.13;;;5.38;;
32864;SDS011;19219;44.500;11.188;2022-07-18T07:18:24;9.77;;;5.60;;
32864;SDS011;19219;44.500;11.188;2022-07-18T07:20:49;5.72;;;5.25;;
32864;SDS011;19219;44.500;11.188;2022-07-18T07:23:15;7.63;;;5.93;;
32864;SDS011;19219;44.500;11.188;2022-07-18T07:25:42;7.47;;;5.05;;
32864;SDS011;19219;44.500;11.188;2022-07-18T07:28:08;7.00;;;5.03;;
32864;SDS011;19219;44.500;11.188;2022-07-18T07:30:34;5.35;;;4.78;;
32864;SDS011;19219;44.500;11.188;2022-07-18T07:33:00;6.45;;;4.97;;
32864;SDS011;19219;44.500;11.188;2022-07-18T07:35:27;6.18;;;4.38;;
32864;SDS011;19219;44.500;11.188;2022-07-18T07:37:54;7.85;;;4.18;;
32864;SDS011;19219;44.500;11.188;2022-07-18T07:40:22;9.35;;;5.70;;
32864;SDS011;19219;44.500;11.188;2022-07-18T07:42:50;8.00;;;5.80;;
32864;SDS011;19219;44.500;11.188;2022-07-18T07:45:17;5.95;;;4.50;;
32864;SDS011;19219;44.500;11.188;2022-07-18T07:47:43;11.57;;;7.10;;
32864;SDS011;19219;44.500;11.188;2022-07-18T07:50:09;8.00;;;4.63;;
32864;SDS011;19219;44.500;11.188;2022-07-18T07:52:36;6.85;;;4.75;;
32864;SDS011;19219;44.500;11.188;2022-07-18T07:55:03;10.45;;;4.43;;
32864;SDS011;19219;44.500;11.188;2022-07-18T07:57:29;10.40;;;5.00;;
32864;SDS011;19219;44.500;11.188;2022-07-18T07:59:55;7.03;;;4.63;;
32864;SDS011;19219;44.500;11.188;2022-07-18T08:02:20;7.45;;;3.92;;
32864;SDS011;19219;44.500;11.188;2022-07-18T08:04:46;4.75;;;3.80;;
32864;SDS011;19219;44.500;11.188;2022-07-18T08:07:11;8.15;;;6.22;;
32864;SDS011;19219;44.500;11.188;2022-07-18T08:09:37;6.07;;;4.95;;
32864;SDS011;19219;44.500;11.188;2022-07-18T08:12:03;11.02;;;6.47;;
32864;SDS011;19219;44.500;11.188;2022-07-18T08:14:29;7.88;;;3.25;;
32864;SDS011;19219;44.500;11.188;2022-07-18T08:16:57;10.57;;;5.63;;
32864;SDS011;19219;44.500;11.188;2022-07-18T08:19:23;3.58;;;3.00;;
32864;SDS011;19219;44.500;11.188;2022-07-18T08:21:50;11.02;;;8.25;;
32864;SDS011;19219;44.500;11.188;2022-07-18T08:24:16;9.43;;;3.45;;
32864;SDS011;19219;44.500;11.188;2022-07-18T08:26:41;4.72;;;3.35;;
32864;SDS011;19219;44.500;11.188;2022-07-18T08:29:07;7.88;;;3.30;;
32864;SDS011;19219;44.500;11.188;2022-07-18T08:31:33;5.75;;;4.38;;
32864;SDS011;19219;44.500;11.188;2022-07-18T08:34:00;13.05;;;6.57;;
32864;SDS011;19219;44.500;11.188;2022-07-18T08:36:26;4.82;;;4.00;;
32864;SDS011;19219;44.500;11.188;2022-07-18T08:38:51;4.95;;;2.85;;
32864;SDS011;19219;44.500;11.188;2022-07-18T08:41:17;5.68;;;4.55;;
32864;SDS011;19219;44.500;11.188;2022-07-18T08:43:47;3.78;;;3.47;;
32864;SDS011;19219;44.500;11.188;2022-07-18T08:46:14;5.50;;;3.10;;
32864;SDS011;19219;44.500;11.188;2022-07-18T08:48:43;4.78;;;3.67;;
32864;SDS011;19219;44.500;11.188;2022-07-18T08:51:09;4.85;;;3.53;;
32864;SDS011;19219;44.500;11.188;2022-07-18T08:53:35;7.65;;;3.80;;
32864;SDS011;19219;44.500;11.188;2022-07-18T08:56:02;4.45;;;3.55;;
32864;SDS011;19219;44.500;11.188;2022-07-18T08:58:28;3.90;;;2.75;;
32864;SDS011;19219;44.500;11.188;2022-07-18T09:00:54;5.68;;;2.83;;
32864;SDS011;19219;44.500;11.188;2022-07-18T09:03:23;8.20;;;4.38;;
32864;SDS011;19219;44.500;11.188;2022-07-18T09:06:06;7.38;;;3.75;;
32864;SDS011;19219;44.500;11.188;2022-07-18T09:08:34;5.68;;;3.65;;
32864;SDS011;19219;44.500;11.188;2022-07-18T09:11:01;11.93;;;6.47;;
32864;SDS011;19219;44.500;11.188;2022-07-18T09:16:02;6.63;;;2.90;;
32864;SDS011;19219;44.500;11.188;2022-07-18T09:18:36;4.63;;;3.33;;
32864;SDS011;19219;44.500;11.188;2022-07-18T09:21:07;4.65;;;3.90;;
32864;SDS011;19219;44.500;11.188;2022-07-18T09:23:39;5.43;;;3.17;;
32864;SDS011;19219;44.500;11.188;2022-07-18T09:26:08;5.63;;;4.47;;
32864;SDS011;19219;44.500;11.188;2022-07-18T09:28:51;4.13;;;2.95;;
32864;SDS011;19219;44.500;11.188;2022-07-18T09:31:19;8.50;;;6.38;;
32864;SDS011;19219;44.500;11.188;2022-07-18T09:33:53;3.97;;;3.35;;
32864;SDS011;19219;44.500;11.188;2022-07-18T09:36:20;3.80;;;3.35;;
32864;SDS011;19219;44.500;11.188;2022-07-18T09:38:46;5.75;;;3.88;;
32864;SDS011;19219;44.500;11.188;2022-07-18T09:41:12;4.85;;;3.53;;
32864;SDS011;19219;44.500;11.188;2022-07-18T09:43:38;6.78;;;4.03;;
32864;SDS011;19219;44.500;11.188;2022-07-18T09:46:05;15.20;;;9.73;;
32864;SDS011;19219;44.500;11.188;2022-07-18T09:48:32;8.77;;;3.55;;
32864;SDS011;19219;44.500;11.188;2022-07-18T09:50:59;6.50;;;3.58;;
32864;SDS011;19219;44.500;11.188;2022-07-18T09:56:01;9.02;;;4.28;;
32864;SDS011;19219;44.500;11.188;2022-07-18T09:58:33;6.80;;;3.72;;
32864;SDS011;19219;44.500;11.188;2022-07-18T10:01:19;4.68;;;3.88;;
32864;SDS011;19219;44.500;11.188;2022-07-18T10:03:45;5.82;;;4.03;;
32864;SDS011;19219;44.500;11.188;2022-07-18T10:06:11;5.90;;;3.22;;
32864;SDS011;19219;44.500;11.188;2022-07-18T10:08:37;3.78;;;3.22;;
32864;SDS011;19219;44.500;11.188;2022-07-18T10:11:04;3.65;;;3.10;;
32864;SDS011;19219;44.500;11.188;2022-07-18T10:13:31;8.20;;;3.97;;
32864;SDS011;19219;44.500;11.188;2022-07-18T10:15:58;5.85;;;3.90;;
32864;SDS011;19219;44.500;11.188;2022-07-18T10:18:26;5.82;;;3.67;;
32864;SDS011;19219;44.500;11.188;2022-07-18T10:23:23;5.43;;;3.70;;
32864;SDS011;19219;44.500;11.188;2022-07-18T10:31:27;5.47;;;4.07;;
32864;SDS011;19219;44.500;11.188;2022-07-18T10:36:33;5.82;;;3.35;;
32864;SDS011;19219;44.500;11.188;2022-07-18T10:39:07;5.10;;;3.47;;
32864;SDS011;19219;44.500;11.188;2022-07-18T10:49:59;4.28;;;3.35;;
32864;SDS011;19219;44.500;11.188;2022-07-18T11:00:15;5.22;;;3.90;;
32864;SDS011;19219;44.500;11.188;2022-07-18T11:05:34;5.60;;;4.03;;
32864;SDS011;19219;44.500;11.188;2022-07-18T11:18:31;4.95;;;4.25;;
32864;SDS011;19219;44.500;11.188;2022-07-18T11:20:57;4.40;;;4.00;;
32864;SDS011;19219;44.500;11.188;2022-07-18T11:23:26;8.98;;;4.68;;
32864;SDS011;19219;44.500;11.188;2022-07-18T11:25:56;5.63;;;4.80;;
32864;SDS011;19219;44.500;11.188;2022-07-18T11:28:24;8.18;;;4.00;;
32864;SDS011;19219;44.500;11.188;2022-07-18T11:31:01;5.10;;;3.97;;
32864;SDS011;19219;44.500;11.188;2022-07-18T11:33:32;7.53;;;4.40;;
32864;SDS011;19219;44.500;11.188;2022-07-18T11:36:10;8.02;;;4.22;;
32864;SDS011;19219;44.500;11.188;2022-07-18T11:38:45;11.02;;;7.70;;
32864;SDS011;19219;44.500;11.188;2022-07-18T11:41:13;5.95;;;4.07;;
32864;SDS011;19219;44.500;11.188;2022-07-18T11:43:39;6.35;;;3.50;;
32864;SDS011;19219;44.500;11.188;2022-07-18T11:46:06;5.63;;;3.58;;
32864;SDS011;19219;44.500;11.188;2022-07-18T11:48:34;6.75;;;3.65;;
32864;SDS011;19219;44.500;11.188;2022-07-18T11:51:01;5.93;;;4.18;;
32864;SDS011;19219;44.500;11.188;2022-07-18T11:53:28;8.07;;;5.50;;
32864;SDS011;19219;44.500;11.188;2022-07-18T11:55:54;5.10;;;4.40;;
32864;SDS011;19219;44.500;11.188;2022-07-18T11:58:21;9.30;;;3.67;;
32864;SDS011;19219;44.500;11.188;2022-07-18T12:00:47;3.80;;;3.50;;
32864;SDS011;19219;44.500;11.188;2022-07-18T12:03:17;5.43;;;3.95;;
32864;SDS011;19219;44.500;11.188;2022-07-18T12:05:46;5.22;;;4.72;;
32864;SDS011;19219;44.500;11.188;2022-07-18T12:08:25;4.18;;;3.80;;
32864;SDS011;19219;44.500;11.188;2022-07-18T12:13:49;5.20;;;4.22;;
32864;SDS011;19219;44.500;11.188;2022-07-18T12:21:40;6.80;;;3.65;;
32864;SDS011;19219;44.500;11.188;2022-07-18T12:30:12;7.40;;;3.75;;
32864;SDS011;19219;44.500;11.188;2022-07-18T12:35:15;5.17;;;3.40;;
32864;SDS011;19219;44.500;11.188;2022-07-18T12:40:43;6.70;;;4.05;;
32864;SDS011;19219;44.500;11.188;2022-07-18T12:43:16;7.15;;;5.78;;
32864;SDS011;19219;44.500;11.188;2022-07-18T12:45:56;6.80;;;4.03;;
32864;SDS011;19219;44.500;11.188;2022-07-18T12:48:23;4.40;;;3.97;;
32864;SDS011;19219;44.500;11.188;2022-07-18T12:50:58;6.43;;;4.32;;
32864;SDS011;19219;44.500;11.188;2022-07-18T12:53:29;6.90;;;3.75;;
32864;SDS011;19219;44.500;11.188;2022-07-18T12:55:56;7.68;;;4.30;;
32864;SDS011;19219;44.500;11.188;2022-07-18T12:58:22;7.00;;;3.63;;
32864;SDS011;19219;44.500;11.188;2022-07-18T13:00:48;3.72;;;3.42;;
32864;SDS011;19219;44.500;11.188;2022-07-18T13:03:15;6.30;;;3.70;;
32864;SDS011;19219;44.500;11.188;2022-07-18T13:05:41;7.07;;;3.80;;
32864;SDS011;19219;44.500;11.188;2022-07-18T13:08:07;6.50;;;3.42;;
32864;SDS011;19219;44.500;11.188;2022-07-18T13:10:35;8.55;;;3.10;;
32864;SDS011;19219;44.500;11.188;2022-07-18T13:13:02;9.73;;;2.90;;
32864;SDS011;19219;44.500;11.188;2022-07-18T13:15:29;6.85;;;2.92;;
32864;SDS011;19219;44.500;11.188;2022-07-18T13:17:55;7.68;;;2.70;;
32864;SDS011;19219;44.500;11.188;2022-07-18T13:20:21;3.10;;;2.80;;
32864;SDS011;19219;44.500;11.188;2022-07-18T13:22:46;3.58;;;2.67;;
32864;SDS011;19219;44.500;11.188;2022-07-18T13:25:12;7.43;;;2.90;;
32864;SDS011;19219;44.500;11.188;2022-07-18T13:27:38;4.97;;;2.90;;
32864;SDS011;19219;44.500;11.188;2022-07-18T13:30:04;3.47;;;2.30;;
32864;SDS011;19219;44.500;11.188;2022-07-18T13:32:32;5.65;;;3.17;;
32864;SDS011;19219;44.500;11.188;2022-07-18T13:34:58;3.58;;;2.70;;
32864;SDS011;19219;44.500;11.188;2022-07-18T13:37:24;5.20;;;3.15;;
32864;SDS011;19219;44.500;11.188;2022-07-18T13:39:49;6.25;;;3.00;;
32864;SDS011;19219;44.500;11.188;2022-07-18T13:42:15;4.85;;;2.42;;
32864;SDS011;19219;44.500;11.188;2022-07-18T13:44:41;3.88;;;2.67;;
32864;SDS011;19219;44.500;11.188;2022-07-18T13:47:10;4.10;;;2.87;;
32864;SDS011;19219;44.500;11.188;2022-07-18T13:49:36;6.75;;;2.80;;
32864;SDS011;19219;44.500;11.188;2022-07-18T13:52:01;6.78;;;2.83;;
32864;SDS011;19219;44.500;11.188;2022-07-18T13:54:27;6.32;;;2.67;;
32864;SDS011;19219;44.500;11.188;2022-07-18T13:56:53;8.45;;;2.85;;
32864;SDS011;19219;44.500;11.188;2022-07-18T13:59:18;4.00;;;2.38;;
32864;SDS011;19219;44.500;11.188;2022-07-18T14:01:44;10.02;;;3.10;;
32864;SDS011;19219;44.500;11.188;2022-07-18T14:04:10;4.78;;;2.88;;
32864;SDS011;19219;44.500;11.188;2022-07-18T14:06:35;4.55;;;2.90;;
32864;SDS011;19219;44.500;11.188;2022-07-18T14:09:02;7.78;;;4.72;;
32864;SDS011;19219;44.500;11.188;2022-07-18T14:11:29;4.53;;;3.00;;
32864;SDS011;19219;44.500;11.188;2022-07-18T14:13:57;4.75;;;3.15;;
32864;SDS011;19219;44.500;11.188;2022-07-18T14:16:23;4.93;;;3.40;;
32864;SDS011;19219;44.500;11.188;2022-07-18T14:18:49;3.92;;;2.70;;
32864;SDS011;19219;44.500;11.188;2022-07-18T14:21:15;6.28;;;2.83;;
32864;SDS011;19219;44.500;11.188;2022-07-18T14:23:41;5.72;;;2.67;;
32864;SDS011;19219;44.500;11.188;2022-07-18T14:26:06;2.88;;;2.63;;
32864;SDS011;19219;44.500;11.188;2022-07-18T14:28:32;4.43;;;2.90;;
32864;SDS011;19219;44.500;11.188;2022-07-18T14:30:58;5.05;;;2.70;;
32864;SDS011;19219;44.500;11.188;2022-07-18T14:33:23;4.30;;;2.58;;
32864;SDS011;19219;44.500;11.188;2022-07-18T14:35:49;10.55;;;5.93;;
32864;SDS011;19219;44.500;11.188;2022-07-18T14:38:14;4.95;;;4.07;;
32864;SDS011;19219;44.500;11.188;2022-07-18T14:40:40;5.15;;;3.00;;
32864;SDS011;19219;44.500;11.188;2022-07-18T14:43:06;9.45;;;3.78;;
32864;SDS011;19219;44.500;11.188;2022-07-18T14:45:32;10.85;;;5.88;;
32864;SDS011;19219;44.500;11.188;2022-07-18T14:47:58;8.23;;;5.10;;
32864;SDS011;19219;44.500;11.188;2022-07-18T14:50:24;4.20;;;2.95;;
32864;SDS011;19219;44.500;11.188;2022-07-18T14:52:50;10.73;;;5.72;;
32864;SDS011;19219;44.500;11.188;2022-07-18T14:55:15;16.15;;;9.27;;
32864;SDS011;19219;44.500;11.188;2022-07-18T14:57:41;4.25;;;3.38;;
32864;SDS011;19219;44.500;11.188;2022-07-18T15:00:08;7.30;;;3.38;;
32864;SDS011;19219;44.500;11.188;2022-07-18T15:02:35;9.38;;;3.58;;
32864;SDS011;19219;44.500;11.188;2022-07-18T15:05:02;8.30;;;4.45;;
32864;SDS011;19219;44.500;11.188;2022-07-18T15:07:28;7.20;;;4.05;;
32864;SDS011;19219;44.500;11.188;2022-07-18T15:09:54;7.00;;;4.68;;
32864;SDS011;19219;44.500;11.188;2022-07-18T15:12:20;13.05;;;8.07;;
32864;SDS011;19219;44.500;11.188;2022-07-18T15:14:46;10.02;;;3.97;;
32864;SDS011;19219;44.500;11.188;2022-07-18T15:17:11;26.10;;;12.15;;
32864;SDS011;19219;44.500;11.188;2022-07-18T15:19:37;9.82;;;4.13;;
32864;SDS011;19219;44.500;11.188;2022-07-18T15:22:03;6.80;;;4.43;;
32864;SDS011;19219;44.500;11.188;2022-07-18T15:24:30;5.00;;;3.20;;
32864;SDS011;19219;44.500;11.188;2022-07-18T15:26:56;8.00;;;4.35;;
32864;SDS011;19219;44.500;11.188;2022-07-18T15:29:22;8.27;;;4.30;;
32864;SDS011;19219;44.500;11.188;2022-07-18T15:31:48;5.13;;;2.83;;
32864;SDS011;19219;44.500;11.188;2022-07-18T15:34:13;6.38;;;3.78;;
32864;SDS011;19219;44.500;11.188;2022-07-18T15:36:39;8.40;;;4.90;;
32864;SDS011;19219;44.500;11.188;2022-07-18T15:39:05;11.60;;;3.95;;